sensor_id;sensor_type;location;lat;lon;timestamp;pressure;altitude;pressure_sealevel;temperature;humidity
79131;BME280;72396;45.194;9.142;2024-02-26T00:00:05;99797.78;;;11.32;63.48
79131;BME280;72396;45.194;9.142;2024-02-26T00:02:35;99784.59;;;11.32;63.52
79131;BME280;72396;45.194;9.142;2024-02-26T00:05:05;99793.91;;;11.04;64.19
79131;BME280;72396;45.194;9.142;2024-02-26T00:07:30;99786.63;;;11.09;64.17
79131;BME280;72396;45.194;9.142;2024-02-26T00:09:55;99777.59;;;11.14;63.69
79131;BME280;72396;45.194;9.142;2024-02-26T00:12:21;99778.38;;;10.98;64.16
79131;BME280;72396;45.194;9.142;2024-02-26T00:14:46;99789.88;;;11.15;64.01
79131;BME280;72396;45.194;9.142;2024-02-26T00:17:13;99781.63;;;10.86;64.54
79131;BME280;72396;45.194;9.142;2024-02-26T00:19:38;99778.69;;;10.92;64.01
79131;BME280;72396;45.194;9.142;2024-02-26T00:22:04;99788.31;;;11.11;64.05
79131;BME280;72396;45.194;9.142;2024-02-26T00:24:29;99742.75;;;11.07;63.04
79131;BME280;72396;45.194;9.142;2024-02-26T00:26:54;99777.38;;;11.18;62.79
79131;BME280;72396;45.194;9.142;2024-02-26T00:29:20;99780.34;;;11.12;63.23
79131;BME280;72396;45.194;9.142;2024-02-26T00:31:46;99766.72;;;11.02;62.94
79131;BME280;72396;45.194;9.142;2024-02-26T00:34:12;99776.94;;;11.28;62.94
79131;BME280;72396;45.194;9.142;2024-02-26T00:36:37;99764.22;;;11.34;62.69
79131;BME280;72396;45.194;9.142;2024-02-26T00:39:02;99767.22;;;11.28;62.52
79131;BME280;72396;45.194;9.142;2024-02-26T00:41:29;99769.84;;;11.28;62.06
79131;BME280;72396;45.194;9.142;2024-02-26T00:43:54;99765.41;;;10.93;61.90
79131;BME280;72396;45.194;9.142;2024-02-26T00:46:19;99769.69;;;11.14;62.41
79131;BME280;72396;45.194;9.142;2024-02-26T00:48:45;99764.25;;;11.17;62.06
79131;BME280;72396;45.194;9.142;2024-02-26T00:51:10;99773.84;;;11.35;62.20
79131;BME280;72396;45.194;9.142;2024-02-26T00:53:35;99776.28;;;11.05;62.09
79131;BME280;72396;45.194;9.142;2024-02-26T00:56:01;99762.53;;;11.16;62.43
79131;BME280;72396;45.194;9.142;2024-02-26T00:58:27;99774.25;;;10.92;62.98
79131;BME280;72396;45.194;9.142;2024-02-26T01:00:52;99762.84;;;10.74;63.80
79131;BME280;72396;45.194;9.142;2024-02-26T01:03:18;99765.94;;;10.83;63.77
79131;BME280;72396;45.194;9.142;2024-02-26T01:05:44;99763.31;;;11.00;63.05
79131;BME280;72396;45.194;9.142;2024-02-26T01:08:09;99762.00;;;10.74;63.32
79131;BME280;72396;45.194;9.142;2024-02-26T01:10:35;99760.41;;;11.06;63.05
79131;BME280;72396;45.194;9.142;2024-02-26T01:13:01;99761.63;;;10.99;63.16
79131;BME280;72396;45.194;9.142;2024-02-26T01:15:26;99747.44;;;11.02;63.54
79131;BME280;72396;45.194;9.142;2024-02-26T01:17:52;99754.72;;;11.14;63.10
79131;BME280;72396;45.194;9.142;2024-02-26T01:20:17;99745.09;;;11.31;62.63
79131;BME280;72396;45.194;9.142;2024-02-26T01:22:43;99749.44;;;11.14;62.43
79131;BME280;72396;45.194;9.142;2024-02-26T01:25:09;99737.59;;;10.88;63.45
79131;BME280;72396;45.194;9.142;2024-02-26T01:27:37;99733.31;;;10.85;63.56
79131;BME280;72396;45.194;9.142;2024-02-26T01:30:03;99740.66;;;10.96;63.52
79131;BME280;72396;45.194;9.142;2024-02-26T01:32:29;99739.91;;;10.94;63.83
79131;BME280;72396;45.194;9.142;2024-02-26T01:34:54;99741.44;;;11.16;63.45
79131;BME280;72396;45.194;9.142;2024-02-26T01:37:20;99736.25;;;10.97;63.40
79131;BME280;72396;45.194;9.142;2024-02-26T01:39:45;99729.66;;;11.05;63.32
79131;BME280;72396;45.194;9.142;2024-02-26T01:42:10;99725.78;;;11.13;63.34
79131;BME280;72396;45.194;9.142;2024-02-26T01:44:36;99723.59;;;11.21;63.12
79131;BME280;72396;45.194;9.142;2024-02-26T01:47:04;99721.44;;;10.94;63.26
79131;BME280;72396;45.194;9.142;2024-02-26T01:49:29;99709.94;;;10.77;63.50
79131;BME280;72396;45.194;9.142;2024-02-26T01:51:55;99725.38;;;10.50;64.49
79131;BME280;72396;45.194;9.142;2024-02-26T01:54:22;99720.00;;;10.69;64.26
79131;BME280;72396;45.194;9.142;2024-02-26T01:56:49;99715.59;;;10.70;64.08
79131;BME280;72396;45.194;9.142;2024-02-26T01:59:15;99717.09;;;10.75;63.55
79131;BME280;72396;45.194;9.142;2024-02-26T02:01:44;99708.63;;;10.69;63.68
79131;BME280;72396;45.194;9.142;2024-02-26T02:04:11;99707.25;;;10.79;63.44
79131;BME280;72396;45.194;9.142;2024-02-26T02:06:37;99700.13;;;10.81;63.04
79131;BME280;72396;45.194;9.142;2024-02-26T02:09:03;99690.72;;;10.75;62.91
79131;BME280;72396;45.194;9.142;2024-02-26T02:11:33;99695.28;;;10.72;63.11
79131;BME280;72396;45.194;9.142;2024-02-26T02:13:59;99694.28;;;10.92;62.75
79131;BME280;72396;45.194;9.142;2024-02-26T02:16:24;99678.31;;;10.77;62.68
79131;BME280;72396;45.194;9.142;2024-02-26T02:18:50;99687.38;;;10.89;62.37
79131;BME280;72396;45.194;9.142;2024-02-26T02:21:15;99682.31;;;11.02;62.30
79131;BME280;72396;45.194;9.142;2024-02-26T02:23:41;99678.91;;;11.00;62.11
79131;BME280;72396;45.194;9.142;2024-02-26T02:26:11;99679.84;;;10.99;61.67
79131;BME280;72396;45.194;9.142;2024-02-26T02:28:37;99674.75;;;10.78;62.72
79131;BME280;72396;45.194;9.142;2024-02-26T02:31:02;99676.22;;;10.84;61.95
79131;BME280;72396;45.194;9.142;2024-02-26T02:33:29;99664.03;;;10.82;62.40
79131;BME280;72396;45.194;9.142;2024-02-26T02:35:54;99676.28;;;10.65;63.24
79131;BME280;72396;45.194;9.142;2024-02-26T02:38:20;99658.91;;;10.78;62.82
79131;BME280;72396;45.194;9.142;2024-02-26T02:40:46;99644.00;;;10.95;62.83
79131;BME280;72396;45.194;9.142;2024-02-26T02:43:11;99657.03;;;10.80;63.09
79131;BME280;72396;45.194;9.142;2024-02-26T02:45:36;99669.13;;;10.85;63.15
79131;BME280;72396;45.194;9.142;2024-02-26T02:48:02;99658.19;;;10.92;63.24
79131;BME280;72396;45.194;9.142;2024-02-26T02:50:27;99663.22;;;10.97;63.39
79131;BME280;72396;45.194;9.142;2024-02-26T02:52:54;99642.13;;;10.97;63.01
79131;BME280;72396;45.194;9.142;2024-02-26T02:55:19;99646.44;;;10.82;63.62
79131;BME280;72396;45.194;9.142;2024-02-26T02:57:45;99655.50;;;10.94;63.58
79131;BME280;72396;45.194;9.142;2024-02-26T03:00:11;99654.94;;;11.05;63.27
79131;BME280;72396;45.194;9.142;2024-02-26T03:02:37;99644.03;;;10.77;64.10
79131;BME280;72396;45.194;9.142;2024-02-26T03:05:03;99658.31;;;10.56;64.80
79131;BME280;72396;45.194;9.142;2024-02-26T03:07:29;99635.38;;;10.91;64.23
79131;BME280;72396;45.194;9.142;2024-02-26T03:09:54;99649.41;;;11.09;63.88
79131;BME280;72396;45.194;9.142;2024-02-26T03:12:19;99637.72;;;10.98;64.11
79131;BME280;72396;45.194;9.142;2024-02-26T03:14:45;99649.91;;;10.65;65.03
79131;BME280;72396;45.194;9.142;2024-02-26T03:17:10;99646.34;;;10.66;64.77
79131;BME280;72396;45.194;9.142;2024-02-26T03:19:35;99617.41;;;10.82;64.27
79131;BME280;72396;45.194;9.142;2024-02-26T03:22:01;99641.97;;;11.00;64.01
79131;BME280;72396;45.194;9.142;2024-02-26T03:24:27;99645.91;;;11.09;63.29
79131;BME280;72396;45.194;9.142;2024-02-26T03:26:52;99638.84;;;11.09;63.45
79131;BME280;72396;45.194;9.142;2024-02-26T03:29:18;99638.53;;;11.16;63.12
79131;BME280;72396;45.194;9.142;2024-02-26T03:31:43;99640.72;;;11.07;63.62
79131;BME280;72396;45.194;9.142;2024-02-26T03:34:08;99650.78;;;10.83;64.30
79131;BME280;72396;45.194;9.142;2024-02-26T03:36:34;99636.88;;;10.79;64.51
79131;BME280;72396;45.194;9.142;2024-02-26T03:38:59;99644.59;;;11.00;64.15
79131;BME280;72396;45.194;9.142;2024-02-26T03:41:24;99634.22;;;10.97;64.64
79131;BME280;72396;45.194;9.142;2024-02-26T03:43:50;99622.28;;;10.90;64.46
79131;BME280;72396;45.194;9.142;2024-02-26T03:46:15;99627.41;;;10.93;64.84
79131;BME280;72396;45.194;9.142;2024-02-26T03:48:41;99617.72;;;10.41;66.32
79131;BME280;72396;45.194;9.142;2024-02-26T03:51:08;99623.53;;;10.65;66.04
79131;BME280;72396;45.194;9.142;2024-02-26T03:53:34;99615.41;;;10.70;65.68
79131;BME280;72396;45.194;9.142;2024-02-26T03:56:03;99624.19;;;10.70;66.30
79131;BME280;72396;45.194;9.142;2024-02-26T03:58:29;99618.22;;;10.49;66.41
79131;BME280;72396;45.194;9.142;2024-02-26T04:00:54;99611.31;;;10.64;65.99
79131;BME280;72396;45.194;9.142;2024-02-26T04:03:19;99626.34;;;10.62;66.13
79131;BME280;72396;45.194;9.142;2024-02-26T04:05:45;99629.06;;;10.60;66.22
79131;BME280;72396;45.194;9.142;2024-02-26T04:08:10;99620.06;;;10.64;65.94
79131;BME280;72396;45.194;9.142;2024-02-26T04:10:36;99611.28;;;10.82;65.96
79131;BME280;72396;45.194;9.142;2024-02-26T04:13:04;99619.34;;;10.78;65.51
79131;BME280;72396;45.194;9.142;2024-02-26T04:15:29;99622.78;;;10.45;66.79
79131;BME280;72396;45.194;9.142;2024-02-26T04:17:55;99620.75;;;10.68;66.34
79131;BME280;72396;45.194;9.142;2024-02-26T04:20:20;99606.34;;;10.75;65.66
79131;BME280;72396;45.194;9.142;2024-02-26T04:22:46;99602.53;;;10.81;65.76
79131;BME280;72396;45.194;9.142;2024-02-26T04:25:11;99600.22;;;10.57;66.28
79131;BME280;72396;45.194;9.142;2024-02-26T04:27:37;99601.66;;;10.80;65.36
79131;BME280;72396;45.194;9.142;2024-02-26T04:30:04;99603.06;;;10.52;66.54
79131;BME280;72396;45.194;9.142;2024-02-26T04:32:30;99599.97;;;10.62;66.17
79131;BME280;72396;45.194;9.142;2024-02-26T04:34:55;99595.00;;;10.73;65.92
79131;BME280;72396;45.194;9.142;2024-02-26T04:37:20;99601.63;;;10.47;66.95
79131;BME280;72396;45.194;9.142;2024-02-26T04:39:46;99594.34;;;10.52;66.58
79131;BME280;72396;45.194;9.142;2024-02-26T04:42:11;99609.53;;;10.47;66.61
79131;BME280;72396;45.194;9.142;2024-02-26T04:44:37;99605.31;;;10.60;66.81
79131;BME280;72396;45.194;9.142;2024-02-26T04:47:02;99608.38;;;10.70;66.16
79131;BME280;72396;45.194;9.142;2024-02-26T04:49:28;99602.94;;;10.56;66.52
79131;BME280;72396;45.194;9.142;2024-02-26T04:51:53;99588.34;;;10.48;66.85
79131;BME280;72396;45.194;9.142;2024-02-26T04:54:19;99603.38;;;10.64;66.72
79131;BME280;72396;45.194;9.142;2024-02-26T04:56:44;99596.97;;;10.52;66.58
79131;BME280;72396;45.194;9.142;2024-02-26T04:59:10;99598.97;;;10.29;67.31
79131;BME280;72396;45.194;9.142;2024-02-26T05:01:35;99596.94;;;10.17;67.62
79131;BME280;72396;45.194;9.142;2024-02-26T05:04:02;99600.88;;;10.26;67.62
79131;BME280;72396;45.194;9.142;2024-02-26T05:06:28;99603.63;;;10.42;67.38
79131;BME280;72396;45.194;9.142;2024-02-26T05:08:55;99601.84;;;10.60;66.67
79131;BME280;72396;45.194;9.142;2024-02-26T05:11:20;99605.81;;;10.51;67.00
79131;BME280;72396;45.194;9.142;2024-02-26T05:13:47;99601.59;;;10.29;67.48
79131;BME280;72396;45.194;9.142;2024-02-26T05:16:13;99616.88;;;10.40;67.63
79131;BME280;72396;45.194;9.142;2024-02-26T05:18:38;99615.03;;;10.42;67.39
79131;BME280;72396;45.194;9.142;2024-02-26T05:21:03;99607.56;;;10.50;67.02
79131;BME280;72396;45.194;9.142;2024-02-26T05:23:29;99594.88;;;10.59;66.57
79131;BME280;72396;45.194;9.142;2024-02-26T05:25:55;99585.88;;;10.45;67.23
79131;BME280;72396;45.194;9.142;2024-02-26T05:28:20;99585.03;;;10.45;66.68
79131;BME280;72396;45.194;9.142;2024-02-26T05:30:46;99602.78;;;10.41;67.15
79131;BME280;72396;45.194;9.142;2024-02-26T05:33:11;99599.75;;;9.94;68.12
79131;BME280;72396;45.194;9.142;2024-02-26T05:35:37;99598.69;;;9.99;67.77
79131;BME280;72396;45.194;9.142;2024-02-26T05:38:03;99601.81;;;10.07;67.70
79131;BME280;72396;45.194;9.142;2024-02-26T05:40:28;99597.25;;;10.28;67.20
79131;BME280;72396;45.194;9.142;2024-02-26T05:42:55;99595.66;;;10.43;66.47
79131;BME280;72396;45.194;9.142;2024-02-26T05:45:20;99596.50;;;10.61;65.88
79131;BME280;72396;45.194;9.142;2024-02-26T05:47:47;99586.34;;;10.54;66.10
79131;BME280;72396;45.194;9.142;2024-02-26T05:50:12;99579.84;;;10.43;66.04
79131;BME280;72396;45.194;9.142;2024-02-26T05:52:38;99591.09;;;10.47;65.93
79131;BME280;72396;45.194;9.142;2024-02-26T05:55:04;99586.44;;;10.52;65.50
79131;BME280;72396;45.194;9.142;2024-02-26T05:57:31;99592.50;;;10.35;65.55
79131;BME280;72396;45.194;9.142;2024-02-26T05:59:56;99592.63;;;10.51;65.86
79131;BME280;72396;45.194;9.142;2024-02-26T06:02:22;99599.03;;;10.28;66.06
79131;BME280;72396;45.194;9.142;2024-02-26T06:04:47;99581.91;;;10.36;66.08
79131;BME280;72396;45.194;9.142;2024-02-26T06:07:13;99598.06;;;10.48;65.53
79131;BME280;72396;45.194;9.142;2024-02-26T06:09:38;99589.19;;;10.14;66.32
79131;BME280;72396;45.194;9.142;2024-02-26T06:12:05;99600.00;;;10.07;66.32
79131;BME280;72396;45.194;9.142;2024-02-26T06:14:30;99602.91;;;10.38;66.18
79131;BME280;72396;45.194;9.142;2024-02-26T06:16:55;99598.09;;;10.29;66.31
79131;BME280;72396;45.194;9.142;2024-02-26T06:19:21;99599.47;;;10.36;65.83
79131;BME280;72396;45.194;9.142;2024-02-26T06:21:46;99591.63;;;10.54;66.36
79131;BME280;72396;45.194;9.142;2024-02-26T06:24:11;99602.13;;;10.36;66.13
79131;BME280;72396;45.194;9.142;2024-02-26T06:26:37;99591.47;;;10.57;66.15
79131;BME280;72396;45.194;9.142;2024-02-26T06:29:02;99594.38;;;10.68;65.60
79131;BME280;72396;45.194;9.142;2024-02-26T06:31:27;99583.31;;;10.44;65.87
79131;BME280;72396;45.194;9.142;2024-02-26T06:33:53;99602.63;;;10.44;65.81
79131;BME280;72396;45.194;9.142;2024-02-26T06:36:19;99618.75;;;10.73;65.56
79131;BME280;72396;45.194;9.142;2024-02-26T06:38:44;99610.19;;;10.68;65.16
79131;BME280;72396;45.194;9.142;2024-02-26T06:41:09;99628.59;;;10.70;64.86
79131;BME280;72396;45.194;9.142;2024-02-26T06:43:36;99619.75;;;10.71;64.52
79131;BME280;72396;45.194;9.142;2024-02-26T06:46:02;99622.00;;;10.43;65.01
79131;BME280;72396;45.194;9.142;2024-02-26T06:48:27;99629.16;;;10.41;64.56
79131;BME280;72396;45.194;9.142;2024-02-26T06:50:52;99630.19;;;10.37;65.17
79131;BME280;72396;45.194;9.142;2024-02-26T06:53:18;99645.97;;;10.56;64.84
79131;BME280;72396;45.194;9.142;2024-02-26T06:55:44;99638.59;;;10.63;64.71
79131;BME280;72396;45.194;9.142;2024-02-26T06:58:09;99642.72;;;10.69;64.31
79131;BME280;72396;45.194;9.142;2024-02-26T07:00:35;99646.06;;;10.72;63.63
79131;BME280;72396;45.194;9.142;2024-02-26T07:03:00;99646.06;;;10.55;63.98
79131;BME280;72396;45.194;9.142;2024-02-26T07:05:27;99660.56;;;10.27;64.90
79131;BME280;72396;45.194;9.142;2024-02-26T07:07:52;99661.00;;;10.54;64.35
79131;BME280;72396;45.194;9.142;2024-02-26T07:10:18;99652.66;;;10.63;64.51
79131;BME280;72396;45.194;9.142;2024-02-26T07:12:43;99643.16;;;10.59;64.39
79131;BME280;72396;45.194;9.142;2024-02-26T07:15:09;99642.88;;;10.65;64.19
79131;BME280;72396;45.194;9.142;2024-02-26T07:17:35;99645.03;;;10.57;64.50
79131;BME280;72396;45.194;9.142;2024-02-26T07:20:00;99634.25;;;10.62;64.16
79131;BME280;72396;45.194;9.142;2024-02-26T07:22:25;99644.41;;;10.70;64.59
79131;BME280;72396;45.194;9.142;2024-02-26T07:24:51;99644.09;;;10.41;65.22
79131;BME280;72396;45.194;9.142;2024-02-26T07:27:18;99651.00;;;10.43;64.71
79131;BME280;72396;45.194;9.142;2024-02-26T07:29:43;99649.13;;;10.45;64.42
79131;BME280;72396;45.194;9.142;2024-02-26T07:32:08;99652.88;;;10.59;63.90
79131;BME280;72396;45.194;9.142;2024-02-26T07:34:34;99654.22;;;10.31;64.48
79131;BME280;72396;45.194;9.142;2024-02-26T07:37:00;99644.19;;;10.57;64.49
79131;BME280;72396;45.194;9.142;2024-02-26T07:39:25;99641.88;;;10.14;64.75
79131;BME280;72396;45.194;9.142;2024-02-26T07:41:51;99634.78;;;9.97;65.13
79131;BME280;72396;45.194;9.142;2024-02-26T07:44:18;99637.00;;;10.23;64.67
79131;BME280;72396;45.194;9.142;2024-02-26T07:46:44;99641.25;;;10.26;64.82
79131;BME280;72396;45.194;9.142;2024-02-26T07:49:09;99635.31;;;10.22;64.99
79131;BME280;72396;45.194;9.142;2024-02-26T07:51:35;99639.00;;;10.36;64.51
79131;BME280;72396;45.194;9.142;2024-02-26T07:54:00;99641.81;;;10.33;64.68
79131;BME280;72396;45.194;9.142;2024-02-26T07:56:26;99631.34;;;10.14;64.86
79131;BME280;72396;45.194;9.142;2024-02-26T07:58:51;99649.31;;;10.42;64.50
79131;BME280;72396;45.194;9.142;2024-02-26T08:01:16;99657.78;;;10.30;64.56
79131;BME280;72396;45.194;9.142;2024-02-26T08:03:42;99666.34;;;10.52;64.34
79131;BME280;72396;45.194;9.142;2024-02-26T08:06:10;99649.25;;;10.24;64.89
79131;BME280;72396;45.194;9.142;2024-02-26T08:08:35;99658.59;;;10.49;63.85
79131;BME280;72396;45.194;9.142;2024-02-26T08:11:01;99660.94;;;10.56;63.83
79131;BME280;72396;45.194;9.142;2024-02-26T08:13:26;99654.56;;;10.77;63.89
79131;BME280;72396;45.194;9.142;2024-02-26T08:15:52;99654.75;;;10.74;63.65
79131;BME280;72396;45.194;9.142;2024-02-26T08:18:18;99657.53;;;10.54;64.19
79131;BME280;72396;45.194;9.142;2024-02-26T08:20:44;99655.81;;;10.52;64.42
79131;BME280;72396;45.194;9.142;2024-02-26T08:23:09;99662.44;;;10.61;64.41
79131;BME280;72396;45.194;9.142;2024-02-26T08:25:35;99657.28;;;10.76;63.82
79131;BME280;72396;45.194;9.142;2024-02-26T08:28:00;99666.28;;;10.89;63.56
79131;BME280;72396;45.194;9.142;2024-02-26T08:30:26;99664.81;;;10.66;64.32
79131;BME280;72396;45.194;9.142;2024-02-26T08:32:51;99660.94;;;10.73;64.06
79131;BME280;72396;45.194;9.142;2024-02-26T08:35:17;99656.78;;;10.32;65.08
79131;BME280;72396;45.194;9.142;2024-02-26T08:37:47;99659.78;;;10.61;64.60
79131;BME280;72396;45.194;9.142;2024-02-26T08:40:13;99670.72;;;10.71;64.94
79131;BME280;72396;45.194;9.142;2024-02-26T08:42:39;99658.91;;;10.78;65.22
79131;BME280;72396;45.194;9.142;2024-02-26T08:45:04;99645.16;;;10.89;64.73
79131;BME280;72396;45.194;9.142;2024-02-26T08:47:30;99666.59;;;10.83;65.55
79131;BME280;72396;45.194;9.142;2024-02-26T08:49:55;99658.44;;;10.88;65.30
79131;BME280;72396;45.194;9.142;2024-02-26T08:52:21;99658.59;;;10.85;65.71
79131;BME280;72396;45.194;9.142;2024-02-26T08:54:49;99677.75;;;10.71;66.60
79131;BME280;72396;45.194;9.142;2024-02-26T08:57:15;99676.75;;;10.91;66.71
79131;BME280;72396;45.194;9.142;2024-02-26T08:59:40;99670.84;;;10.68;67.16
79131;BME280;72396;45.194;9.142;2024-02-26T09:02:05;99664.19;;;10.78;67.30
79131;BME280;72396;45.194;9.142;2024-02-26T09:04:31;99675.06;;;10.55;67.56
79131;BME280;72396;45.194;9.142;2024-02-26T09:06:56;99673.19;;;10.57;68.08
79131;BME280;72396;45.194;9.142;2024-02-26T09:09:21;99649.06;;;10.47;68.21
79131;BME280;72396;45.194;9.142;2024-02-26T09:11:48;99672.16;;;10.42;68.65
79131;BME280;72396;45.194;9.142;2024-02-26T09:14:16;99675.50;;;10.63;68.09
79131;BME280;72396;45.194;9.142;2024-02-26T09:16:42;99672.50;;;10.71;67.89
79131;BME280;72396;45.194;9.142;2024-02-26T09:19:07;99671.66;;;10.70;68.22
79131;BME280;72396;45.194;9.142;2024-02-26T09:21:32;99658.38;;;10.72;67.88
79131;BME280;72396;45.194;9.142;2024-02-26T09:23:58;99663.09;;;10.65;68.50
79131;BME280;72396;45.194;9.142;2024-02-26T09:26:23;99658.38;;;10.72;68.42
79131;BME280;72396;45.194;9.142;2024-02-26T09:28:49;99670.41;;;10.60;69.04
79131;BME280;72396;45.194;9.142;2024-02-26T09:31:15;99665.72;;;10.47;69.09
79131;BME280;72396;45.194;9.142;2024-02-26T09:33:42;99664.63;;;10.69;68.45
79131;BME280;72396;45.194;9.142;2024-02-26T09:36:07;99662.94;;;10.68;68.67
79131;BME280;72396;45.194;9.142;2024-02-26T09:38:34;99673.03;;;10.77;68.21
79131;BME280;72396;45.194;9.142;2024-02-26T09:41:06;99673.97;;;10.41;69.04
79131;BME280;72396;45.194;9.142;2024-02-26T09:43:35;99678.25;;;10.61;68.83
79131;BME280;72396;45.194;9.142;2024-02-26T09:46:01;99662.97;;;10.31;68.87
79131;BME280;72396;45.194;9.142;2024-02-26T09:48:28;99671.34;;;10.03;69.97
79131;BME280;72396;45.194;9.142;2024-02-26T09:50:54;99652.75;;;9.88;70.07
79131;BME280;72396;45.194;9.142;2024-02-26T09:53:21;99660.22;;;10.15;69.72
79131;BME280;72396;45.194;9.142;2024-02-26T09:55:47;99671.56;;;10.35;69.08
79131;BME280;72396;45.194;9.142;2024-02-26T09:58:12;99668.88;;;10.00;69.13
79131;BME280;72396;45.194;9.142;2024-02-26T10:00:46;99656.34;;;10.05;69.26
79131;BME280;72396;45.194;9.142;2024-02-26T10:03:15;99669.66;;;10.38;68.93
79131;BME280;72396;45.194;9.142;2024-02-26T10:05:41;99670.19;;;10.28;68.98
79131;BME280;72396;45.194;9.142;2024-02-26T10:08:09;99665.38;;;9.99;69.15
79131;BME280;72396;45.194;9.142;2024-02-26T10:10:36;99660.63;;;10.25;69.03
79131;BME280;72396;45.194;9.142;2024-02-26T10:13:03;99671.34;;;10.40;68.76
79131;BME280;72396;45.194;9.142;2024-02-26T10:15:31;99668.63;;;10.23;68.48
79131;BME280;72396;45.194;9.142;2024-02-26T10:17:57;99667.53;;;10.28;69.10
79131;BME280;72396;45.194;9.142;2024-02-26T10:20:22;99661.19;;;10.32;68.94
79131;BME280;72396;45.194;9.142;2024-02-26T10:22:48;99677.50;;;10.40;68.62
79131;BME280;72396;45.194;9.142;2024-02-26T10:25:14;99665.19;;;10.04;69.20
79131;BME280;72396;45.194;9.142;2024-02-26T10:27:40;99691.38;;;10.07;69.84
79131;BME280;72396;45.194;9.142;2024-02-26T10:30:17;99695.25;;;10.17;69.47
79131;BME280;72396;45.194;9.142;2024-02-26T10:32:47;99679.31;;;10.20;69.27
79131;BME280;72396;45.194;9.142;2024-02-26T10:35:13;99673.91;;;10.23;68.78
79131;BME280;72396;45.194;9.142;2024-02-26T10:37:42;99680.66;;;10.29;69.38
79131;BME280;72396;45.194;9.142;2024-02-26T10:40:11;99670.28;;;10.07;69.50
79131;BME280;72396;45.194;9.142;2024-02-26T10:42:37;99661.91;;;10.35;69.33
79131;BME280;72396;45.194;9.142;2024-02-26T10:45:05;99651.16;;;10.21;69.46
79131;BME280;72396;45.194;9.142;2024-02-26T10:47:31;99637.94;;;10.22;69.60
79131;BME280;72396;45.194;9.142;2024-02-26T10:49:59;99640.09;;;10.32;69.10
79131;BME280;72396;45.194;9.142;2024-02-26T10:52:25;99650.78;;;10.11;69.69
79131;BME280;72396;45.194;9.142;2024-02-26T10:54:53;99649.97;;;10.28;69.61
79131;BME280;72396;45.194;9.142;2024-02-26T10:57:19;99647.06;;;10.15;69.23
79131;BME280;72396;45.194;9.142;2024-02-26T10:59:48;99652.06;;;10.02;70.27
79131;BME280;72396;45.194;9.142;2024-02-26T11:02:14;99667.88;;;9.83;71.13
79131;BME280;72396;45.194;9.142;2024-02-26T11:04:40;99664.81;;;9.92;70.65
79131;BME280;72396;45.194;9.142;2024-02-26T11:07:08;99669.53;;;9.66;71.15
79131;BME280;72396;45.194;9.142;2024-02-26T11:09:35;99674.50;;;9.92;70.43
79131;BME280;72396;45.194;9.142;2024-02-26T11:12:01;99684.31;;;10.07;70.47
79131;BME280;72396;45.194;9.142;2024-02-26T11:14:29;99683.66;;;10.21;69.58
79131;BME280;72396;45.194;9.142;2024-02-26T11:16:55;99675.75;;;10.21;69.39
79131;BME280;72396;45.194;9.142;2024-02-26T11:19:21;99679.34;;;10.01;69.36
79131;BME280;72396;45.194;9.142;2024-02-26T11:21:47;99672.06;;;10.06;69.89
79131;BME280;72396;45.194;9.142;2024-02-26T11:24:14;99671.78;;;10.13;69.51
79131;BME280;72396;45.194;9.142;2024-02-26T11:26:48;99669.63;;;10.21;69.34
79131;BME280;72396;45.194;9.142;2024-02-26T11:29:19;99671.53;;;10.17;69.24
79131;BME280;72396;45.194;9.142;2024-02-26T11:31:46;99656.63;;;9.99;69.25
79131;BME280;72396;45.194;9.142;2024-02-26T11:34:12;99639.53;;;10.07;68.98
79131;BME280;72396;45.194;9.142;2024-02-26T11:36:38;99639.47;;;10.27;68.56
79131;BME280;72396;45.194;9.142;2024-02-26T11:39:04;99630.59;;;9.92;69.44
79131;BME280;72396;45.194;9.142;2024-02-26T11:41:30;99631.16;;;9.99;69.66
79131;BME280;72396;45.194;9.142;2024-02-26T11:44:01;99636.47;;;9.98;69.07
79131;BME280;72396;45.194;9.142;2024-02-26T11:46:42;99616.88;;;9.66;69.77
79131;BME280;72396;45.194;9.142;2024-02-26T11:51:52;99604.06;;;9.78;69.13
79131;BME280;72396;45.194;9.142;2024-02-26T11:54:48;99591.06;;;9.75;68.79
79131;BME280;72396;45.194;9.142;2024-02-26T12:00:12;99586.00;;;9.70;69.87
79131;BME280;72396;45.194;9.142;2024-02-26T12:02:46;99589.41;;;9.72;69.22
79131;BME280;72396;45.194;9.142;2024-02-26T12:05:17;99596.91;;;9.99;68.48
79131;BME280;72396;45.194;9.142;2024-02-26T12:07:49;99614.22;;;9.86;68.59
79131;BME280;72396;45.194;9.142;2024-02-26T12:10:23;99603.44;;;9.73;68.92
79131;BME280;72396;45.194;9.142;2024-02-26T12:15:23;99598.66;;;9.81;68.51
79131;BME280;72396;45.194;9.142;2024-02-26T12:17:49;99616.13;;;10.01;68.03
79131;BME280;72396;45.194;9.142;2024-02-26T12:20:16;99617.91;;;10.18;67.88
79131;BME280;72396;45.194;9.142;2024-02-26T12:22:45;99614.34;;;10.19;68.43
79131;BME280;72396;45.194;9.142;2024-02-26T12:25:11;99614.81;;;10.10;68.16
79131;BME280;72396;45.194;9.142;2024-02-26T12:27:36;99604.06;;;9.78;67.95
79131;BME280;72396;45.194;9.142;2024-02-26T12:30:03;99610.75;;;10.03;67.79
79131;BME280;72396;45.194;9.142;2024-02-26T12:32:28;99617.41;;;10.29;67.55
79131;BME280;72396;45.194;9.142;2024-02-26T12:34:54;99626.16;;;10.30;66.92
79131;BME280;72396;45.194;9.142;2024-02-26T12:37:19;99627.31;;;10.24;67.33
79131;BME280;72396;45.194;9.142;2024-02-26T12:39:45;99617.91;;;10.18;67.35
79131;BME280;72396;45.194;9.142;2024-02-26T12:42:11;99615.19;;;10.02;67.55
79131;BME280;72396;45.194;9.142;2024-02-26T12:44:37;99616.47;;;10.30;67.53
79131;BME280;72396;45.194;9.142;2024-02-26T12:47:03;99611.41;;;10.45;67.19
79131;BME280;72396;45.194;9.142;2024-02-26T12:49:29;99605.38;;;10.23;67.41
79131;BME280;72396;45.194;9.142;2024-02-26T12:51:54;99606.91;;;10.47;67.08
79131;BME280;72396;45.194;9.142;2024-02-26T12:54:29;99572.13;;;10.38;67.51
79131;BME280;72396;45.194;9.142;2024-02-26T12:56:57;99584.34;;;10.41;67.64
79131;BME280;72396;45.194;9.142;2024-02-26T12:59:23;99600.06;;;10.43;67.21
79131;BME280;72396;45.194;9.142;2024-02-26T13:01:49;99605.66;;;10.17;67.22